createdAt,value
2022-09-07T00:00:58.091Z,101353.19
2022-09-07T00:03:25.181Z,101360.88
2022-09-07T00:05:52.335Z,101345.56
2022-09-07T00:08:22.021Z,101344.16
2022-09-07T00:11:11.298Z,101343.91
2022-09-07T00:13:39.386Z,101345.72
2022-09-07T00:16:08.471Z,101335.50
2022-09-07T00:18:35.341Z,101343.91
2022-09-07T00:21:04.683Z,101340.53
2022-09-07T00:23:32.116Z,101354.47
2022-09-07T00:26:03.534Z,101339.69
2022-09-07T00:28:31.140Z,101339.69
2022-09-07T00:30:58.067Z,101338.28
2022-09-07T00:33:24.928Z,101335.75
2022-09-07T00:35:51.375Z,101336.88
2022-09-07T00:38:18.011Z,101335.06
2022-09-07T00:40:44.500Z,101327.50
2022-09-07T00:43:16.948Z,101328.47
2022-09-07T00:45:43.450Z,101324.84
2022-09-07T00:48:19.891Z,101324.16
2022-09-07T00:50:51.946Z,101319.97
2022-09-07T00:53:29.972Z,101323.00
2022-09-07T00:55:57.707Z,101329.25
2022-09-07T00:58:24.790Z,101335.38
2022-09-07T01:00:51.577Z,101341.53
2022-09-07T01:03:23.541Z,101342.22
2022-09-07T01:06:05.560Z,101361.56
2022-09-07T01:08:32.317Z,101366.59
2022-09-07T01:11:00.263Z,101378.88
2022-09-07T01:13:27.283Z,101390.25
2022-09-07T01:16:07.746Z,101389.25
2022-09-07T01:19:05.564Z,101395.88
2022-09-07T01:21:56.521Z,101394.22
2022-09-07T01:24:37.877Z,101397.44
2022-09-07T01:27:38.365Z,101398.19
2022-09-07T01:30:11.348Z,101399.13
2022-09-07T01:33:15.268Z,101399.00
2022-09-07T01:35:51.988Z,101406.94
2022-09-07T01:38:31.900Z,101402.25
2022-09-07T01:41:04.367Z,101399.91
2022-09-07T01:43:55.577Z,101395.34
2022-09-07T01:46:28.149Z,101389.47
2022-09-07T01:49:02.326Z,101378.28
2022-09-07T01:51:33.350Z,101369.66
2022-09-07T01:54:10.728Z,101356.78
2022-09-07T01:56:42.043Z,101351.50
2022-09-07T01:59:17.476Z,101330.63
2022-09-07T02:01:51.007Z,101320.88
2022-09-07T02:04:24.982Z,101311.06
2022-09-07T02:07:06.728Z,101305.03
2022-09-07T02:09:51.465Z,101297.66
2022-09-07T02:12:26.941Z,101289.81
2022-09-07T02:15:02.224Z,101290.06
2022-09-07T02:17:35.947Z,101299.97
2022-09-07T02:20:16.789Z,101290.59
2022-09-07T02:22:49.251Z,101304.91
2022-09-07T02:25:22.411Z,101288.19
2022-09-07T02:27:56.959Z,101290.25
2022-09-07T02:30:23.384Z,101295.53
2022-09-07T02:32:50.022Z,101290.25
2022-09-07T02:35:16.801Z,101291.13
2022-09-07T02:37:45.374Z,101291.38
2022-09-07T02:40:12.905Z,101284.63
2022-09-07T02:42:39.703Z,101283.22
2022-09-07T02:45:09.773Z,101287.81
2022-09-07T02:47:56.376Z,101282.63
2022-09-07T02:50:50.821Z,101279.25
2022-09-07T02:53:36.021Z,101277.72
2022-09-07T02:56:24.221Z,101270.66
2022-09-07T02:59:21.583Z,101281.28
2022-09-07T03:02:10.097Z,101297.91
2022-09-07T03:05:03.066Z,101303.19
2022-09-07T03:07:44.314Z,101303.19
2022-09-07T03:10:13.282Z,101305.59
2022-09-07T03:12:41.953Z,101301.88
2022-09-07T03:15:11.565Z,101299.09
2022-09-07T03:17:38.721Z,101296.56
2022-09-07T03:20:05.549Z,101288.75
2022-09-07T03:22:33.366Z,101294.03
2022-09-07T03:24:59.739Z,101294.28
2022-09-07T03:27:26.692Z,101292.63
2022-09-07T03:29:53.122Z,101295.84
2022-09-07T03:32:19.519Z,101300.31
2022-09-07T03:34:48.352Z,101297.91
2022-09-07T03:37:15.217Z,101300.31
2022-09-07T03:39:41.676Z,101298.63
2022-09-07T03:42:08.285Z,101292.75
2022-09-07T03:44:34.678Z,101284.00
2022-09-07T03:47:01.141Z,101273.31
2022-09-07T03:49:27.541Z,101266.06
2022-09-07T03:51:53.931Z,101249.38
2022-09-07T03:54:20.311Z,101234.50
2022-09-07T03:56:46.697Z,101226.94
2022-09-07T03:59:13.155Z,101229.00
2022-09-07T04:01:40.055Z,101229.25
2022-09-07T04:04:06.604Z,101247.03
2022-09-07T04:06:33.215Z,101258.56
2022-09-07T04:09:12.206Z,101258.84
2022-09-07T04:11:40.361Z,101254.03
2022-09-07T04:14:08.462Z,101250.44
2022-09-07T04:16:35.295Z,101254.16
2022-09-07T04:19:01.795Z,101267.59
2022-09-07T04:21:30.111Z,101270.88
2022-09-07T04:23:56.716Z,101264.66
2022-09-07T04:26:25.545Z,101265.16
2022-09-07T04:28:52.818Z,101273.06
2022-09-07T04:31:20.119Z,101266.94
2022-09-07T04:33:48.547Z,101274.16
2022-09-07T04:36:16.569Z,101278.84
2022-09-07T04:38:43.585Z,101281.72
2022-09-07T04:41:14.810Z,101272.13
2022-09-07T04:43:41.666Z,101266.84
2022-09-07T04:46:17.239Z,101268.66
2022-09-07T04:48:43.700Z,101270.47
2022-09-07T04:51:10.751Z,101271.41
2022-09-07T04:53:38.436Z,101267.81
2022-09-07T04:56:05.539Z,101273.56
2022-09-07T04:58:32.275Z,101269.47
2022-09-07T05:01:03.372Z,101265.78
2022-09-07T05:03:36.427Z,101265.53
2022-09-07T05:06:07.728Z,101257.47
2022-09-07T05:08:48.286Z,101259.28
2022-09-07T05:11:16.116Z,101259.53
2022-09-07T05:13:42.537Z,101264.34
2022-09-07T05:16:14.778Z,101264.69
2022-09-07T05:18:41.603Z,101268.44
2022-09-07T05:21:13.716Z,101264.47
2022-09-07T05:23:40.668Z,101267.09
2022-09-07T05:26:08.107Z,101254.16
2022-09-07T05:28:35.626Z,101233.63
2022-09-07T05:31:18.611Z,101235.66
2022-09-07T05:36:40.407Z,101247.63
2022-09-07T05:39:07.933Z,101251.00
2022-09-07T05:41:34.854Z,101249.78
2022-09-07T05:46:48.273Z,101266.38
2022-09-07T05:49:14.753Z,101254.13
2022-09-07T05:51:41.215Z,101267.19
2022-09-07T05:54:07.740Z,101262.84
2022-09-07T05:56:35.839Z,101264.13
2022-09-07T05:59:02.277Z,101256.50
2022-09-07T06:01:28.749Z,101268.28
2022-09-07T06:03:55.231Z,101279.16
2022-09-07T06:06:21.675Z,101282.44
2022-09-07T06:08:50.925Z,101286.19
2022-09-07T06:11:19.593Z,101283.41
2022-09-07T06:13:46.355Z,101286.53
2022-09-07T06:16:14.369Z,101283.31
2022-09-07T06:18:43.688Z,101286.66
2022-09-07T06:21:16.091Z,101288.56
2022-09-07T06:23:44.171Z,101287.88
2022-09-07T06:26:11.998Z,101298.44
2022-09-07T06:28:43.579Z,101292.06
2022-09-07T06:31:15.621Z,101291.81
2022-09-07T06:33:43.381Z,101296.63
2022-09-07T06:36:21.897Z,101302.13
2022-09-07T06:38:50.089Z,101301.88
2022-09-07T06:44:06.171Z,101297.56
2022-09-07T06:49:19.121Z,101297.91
2022-09-07T06:51:45.532Z,101290.31
2022-09-07T06:56:58.516Z,101294.59
2022-09-07T06:59:25.004Z,101301.44
2022-09-07T07:01:51.760Z,101303.44
2022-09-07T07:04:18.176Z,101307.97
2022-09-07T07:06:44.563Z,101309.69
2022-09-07T07:09:13.875Z,101312.66
2022-09-07T07:11:40.266Z,101301.34
2022-09-07T07:14:06.713Z,101305.72
2022-09-07T07:16:33.377Z,101310.69
2022-09-07T07:18:59.850Z,101305.28
2022-09-07T07:21:28.975Z,101308.00
2022-09-07T07:24:03.893Z,101305.94
2022-09-07T07:26:33.680Z,101306.66
2022-09-07T07:31:33.194Z,101308.13
2022-09-07T07:33:59.864Z,101312.22
2022-09-07T07:36:27.685Z,101317.69
2022-09-07T07:44:18.799Z,101325.78
2022-09-07T07:46:49.193Z,101325.09
2022-09-07T07:49:18.492Z,101325.38
2022-09-07T07:54:36.659Z,101333.22
2022-09-07T07:57:04.314Z,101328.38
2022-09-07T07:59:30.723Z,101333.44
2022-09-07T08:01:57.195Z,101326.88
2022-09-07T08:04:23.694Z,101333.13
2022-09-07T08:06:50.052Z,101342.34
2022-09-07T08:09:17.371Z,101340.25
2022-09-07T08:11:43.911Z,101340.22
2022-09-07T08:14:10.355Z,101349.13
2022-09-07T08:16:37.601Z,101357.66
2022-09-07T08:19:05.640Z,101356.00
2022-09-07T08:21:32.918Z,101354.47
2022-09-07T08:24:00.066Z,101364.94
2022-09-07T08:26:27.428Z,101363.13
2022-09-07T08:28:53.893Z,101361.34
2022-09-07T08:31:26.809Z,101356.31
2022-09-07T08:33:53.814Z,101351.13
2022-09-07T08:36:20.963Z,101348.47
2022-09-07T08:38:48.496Z,101356.09
2022-09-07T08:41:40.627Z,101350.63
2022-09-07T08:44:43.027Z,101357.78
2022-09-07T08:47:21.717Z,101362.81
2022-09-07T08:50:01.192Z,101363.91
2022-09-07T08:52:52.892Z,101371.59
2022-09-07T08:55:21.616Z,101369.06
2022-09-07T08:57:56.945Z,101361.66
2022-09-07T09:00:23.374Z,101360.44
2022-09-07T09:06:05.238Z,101361.91
2022-09-07T09:08:40.876Z,101363.53
2022-09-07T09:11:31.052Z,101366.41
2022-09-07T09:14:03.417Z,101365.88
2022-09-07T09:16:45.636Z,101361.06
2022-09-07T09:19:27.182Z,101359.28
2022-09-07T09:22:09.763Z,101354.97
2022-09-07T09:24:40.380Z,101361.00
2022-09-07T09:27:06.763Z,101357.50
2022-09-07T09:29:33.305Z,101360.53
2022-09-07T09:31:59.804Z,101366.00
2022-09-07T09:34:29.453Z,101359.41
2022-09-07T09:36:59.178Z,101357.97
2022-09-07T09:39:31.410Z,101356.25
2022-09-07T09:42:02.359Z,101356.03
2022-09-07T09:44:34.081Z,101356.66
2022-09-07T09:49:48.975Z,101346.94
2022-09-07T09:52:38.489Z,101359.28
2022-09-07T09:55:30.622Z,101358.63
2022-09-07T10:04:01.166Z,101345.47
2022-09-07T10:06:30.525Z,101342.97
2022-09-07T10:09:01.743Z,101343.41
2022-09-07T10:14:46.573Z,101345.63
2022-09-07T10:17:19.853Z,101344.16
2022-09-07T10:19:46.287Z,101345.78
2022-09-07T10:22:32.037Z,101343.38
2022-09-07T10:24:58.733Z,101345.88
2022-09-07T10:27:35.863Z,101342.13
2022-09-07T10:30:09.600Z,101334.84
2022-09-07T10:32:54.517Z,101347.00
2022-09-07T10:35:27.910Z,101340.59
2022-09-07T10:38:12.111Z,101342.94
2022-09-07T10:41:00.871Z,101335.63
2022-09-07T10:43:36.265Z,101335.19
2022-09-07T10:46:08.695Z,101321.69
2022-09-07T10:48:38.232Z,101329.69
2022-09-07T10:51:14.273Z,101331.72
2022-09-07T10:56:59.094Z,101330.66
2022-09-07T11:05:59.448Z,101323.72
2022-09-07T11:09:15.174Z,101325.38
2022-09-07T11:14:20.177Z,101320.53
2022-09-07T11:16:53.617Z,101321.06
2022-09-07T11:19:36.010Z,101325.75
2022-09-07T11:22:18.988Z,101322.25
2022-09-07T11:27:50.585Z,101322.25
2022-09-07T11:30:21.670Z,101317.38
2022-09-07T11:33:40.474Z,101310.16
2022-09-07T11:36:16.571Z,101313.81
2022-09-07T11:38:49.399Z,101319.00
2022-09-07T11:41:22.226Z,101323.06
2022-09-07T11:44:00.324Z,101326.41
2022-09-07T11:46:36.727Z,101329.44
2022-09-07T11:49:12.971Z,101318.25
2022-09-07T11:52:05.048Z,101320.72
2022-09-07T11:54:45.006Z,101322.53
2022-09-07T11:57:14.409Z,101313.38
2022-09-07T12:00:12.264Z,101301.28
2022-09-07T12:02:58.681Z,101315.00
2022-09-07T12:05:44.391Z,101312.00
2022-09-07T12:08:34.984Z,101304.13
2022-09-07T12:11:40.814Z,101307.97
2022-09-07T12:14:38.377Z,101297.16
2022-09-07T12:17:26.558Z,101297.53
2022-09-07T12:20:38.240Z,101305.84
2022-09-07T12:23:17.832Z,101303.06
2022-09-07T12:25:46.742Z,101302.41
2022-09-07T12:31:06.073Z,101295.72
2022-09-07T12:33:37.592Z,101294.53
2022-09-07T12:36:27.166Z,101301.06
2022-09-07T12:39:06.147Z,101294.31
2022-09-07T12:41:42.333Z,101287.84
2022-09-07T12:44:15.755Z,101296.13
2022-09-07T12:46:48.275Z,101284.81
2022-09-07T12:49:20.709Z,101284.16
2022-09-07T12:52:16.196Z,101271.03
2022-09-07T12:55:28.295Z,101268.59
2022-09-07T12:58:13.707Z,101272.03
2022-09-07T13:00:43.193Z,101262.63
2022-09-07T13:09:37.137Z,101256.19
2022-09-07T13:15:12.639Z,101249.09
2022-09-07T13:17:43.858Z,101248.22
2022-09-07T13:20:10.197Z,101248.31
2022-09-07T13:22:36.763Z,101245.84
2022-09-07T13:25:26.204Z,101249.22
2022-09-07T13:27:57.818Z,101246.34
2022-09-07T13:30:33.031Z,101242.75
2022-09-07T13:33:24.221Z,101246.28
2022-09-07T13:36:15.683Z,101233.31
2022-09-07T13:38:43.391Z,101234.72
2022-09-07T13:41:16.760Z,101233.81
2022-09-07T13:43:50.975Z,101228.16
2022-09-07T13:46:54.697Z,101226.81
2022-09-07T13:49:55.882Z,101231.91
2022-09-07T13:52:28.415Z,101227.59
2022-09-07T13:55:08.440Z,101225.63
2022-09-07T13:58:09.968Z,101230.44
2022-09-07T14:00:36.604Z,101232.41
2022-09-07T14:03:13.289Z,101228.16
2022-09-07T14:05:39.683Z,101227.75
2022-09-07T14:08:06.140Z,101230.78
2022-09-07T14:10:32.653Z,101228.97
2022-09-07T14:13:01.854Z,101225.25
2022-09-07T14:15:35.428Z,101222.31
2022-09-07T14:18:17.616Z,101224.28
2022-09-07T14:20:47.855Z,101226.44
2022-09-07T14:23:27.799Z,101227.19
2022-09-07T14:26:17.014Z,101218.94
2022-09-07T14:28:46.041Z,101228.88
2022-09-07T14:31:14.836Z,101219.63
2022-09-07T14:33:56.694Z,101223.63
2022-09-07T14:36:46.387Z,101219.47
2022-09-07T14:39:15.800Z,101213.75
2022-09-07T14:41:43.285Z,101212.63
2022-09-07T14:44:33.090Z,101213.97
2022-09-07T14:47:05.926Z,101212.94
2022-09-07T14:49:32.790Z,101215.78
2022-09-07T14:52:02.721Z,101215.66
2022-09-07T14:54:32.437Z,101215.56
2022-09-07T14:57:05.803Z,101209.41
2022-09-07T14:59:38.727Z,101210.19
2022-09-07T15:02:27.267Z,101211.00
2022-09-07T15:05:29.254Z,101213.03
2022-09-07T15:08:01.475Z,101206.88
2022-09-07T15:10:35.518Z,101205.19
2022-09-07T15:13:05.239Z,101198.84
2022-09-07T15:15:33.047Z,101191.03
2022-09-07T15:18:08.790Z,101194.41
2022-09-07T15:20:39.794Z,101188.75
2022-09-07T15:23:24.170Z,101184.03
2022-09-07T15:25:53.599Z,101184.84
2022-09-07T15:34:01.757Z,101185.19
2022-09-07T15:36:28.816Z,101173.38
2022-09-07T15:39:03.434Z,101185.09
2022-09-07T15:41:30.717Z,101184.78
2022-09-07T15:43:57.489Z,101183.56
2022-09-07T15:46:25.027Z,101176.72
2022-09-07T15:48:54.077Z,101186.25
2022-09-07T15:54:14.120Z,101190.00
2022-09-07T15:56:42.369Z,101181.94
2022-09-07T15:59:10.477Z,101183.78
2022-09-07T16:01:54.702Z,101183.81
2022-09-07T16:04:24.178Z,101178.53
2022-09-07T16:06:53.328Z,101186.25
2022-09-07T16:09:21.672Z,101177.94
2022-09-07T16:11:50.047Z,101182.81
2022-09-07T16:14:17.379Z,101172.63
2022-09-07T16:19:30.477Z,101165.25
2022-09-07T16:21:57.558Z,101170.47
2022-09-07T16:24:24.339Z,101163.28
2022-09-07T16:26:50.700Z,101161.44
2022-09-07T16:29:17.876Z,101165.81
2022-09-07T16:34:31.100Z,101165.47
2022-09-07T16:36:57.527Z,101158.13
2022-09-07T16:39:23.993Z,101158.47
2022-09-07T16:41:50.512Z,101159.44
2022-09-07T16:44:17.024Z,101160.59
2022-09-07T16:46:43.734Z,101160.75
2022-09-07T16:49:11.265Z,101155.13
2022-09-07T16:51:39.638Z,101150.47
2022-09-07T16:54:06.893Z,101142.13
2022-09-07T16:56:38.238Z,101154.34
2022-09-07T16:59:06.987Z,101150.88
2022-09-07T17:01:35.463Z,101156.25
2022-09-07T17:04:05.556Z,101153.09
2022-09-07T17:06:36.351Z,101158.28
2022-09-07T17:09:02.980Z,101160.91
2022-09-07T17:11:31.801Z,101161.59
2022-09-07T17:13:59.282Z,101149.59
2022-09-07T17:16:29.627Z,101149.28
2022-09-07T17:21:46.312Z,101152.44
2022-09-07T17:24:12.986Z,101151.31
2022-09-07T17:26:42.240Z,101148.28
2022-09-07T17:29:09.524Z,101154.97
2022-09-07T17:34:23.884Z,101144.47
2022-09-07T17:36:50.676Z,101152.81
2022-09-07T17:39:19.104Z,101156.13
2022-09-07T17:41:48.315Z,101145.47
2022-09-07T17:44:15.583Z,101147.16
2022-09-07T17:46:41.982Z,101155.25
2022-09-07T17:49:12.036Z,101152.06
2022-09-07T17:51:38.683Z,101143.56
2022-09-07T17:54:10.735Z,101142.56
2022-09-07T17:56:38.726Z,101143.53
2022-09-07T18:01:53.721Z,101141.50
2022-09-07T18:04:20.421Z,101142.13
2022-09-07T18:06:46.920Z,101138.59
2022-09-07T18:09:13.993Z,101147.91
2022-09-07T18:11:47.325Z,101146.69
2022-09-07T18:14:15.314Z,101141.84
2022-09-07T18:16:43.238Z,101139.13
2022-09-07T18:19:11.034Z,101140.25
2022-09-07T18:21:38.227Z,101137.69
2022-09-07T18:24:07.657Z,101134.69
2022-09-07T18:26:36.104Z,101136.16
2022-09-07T18:29:03.636Z,101138.78
2022-09-07T18:31:30.729Z,101136.09
2022-09-07T18:33:58.078Z,101135.63
2022-09-07T18:36:25.756Z,101125.81
2022-09-07T18:38:53.260Z,101131.97
2022-09-07T18:41:20.920Z,101133.13
2022-09-07T18:43:48.153Z,101136.88
2022-09-07T18:46:17.218Z,101140.47
2022-09-07T18:48:44.442Z,101144.28
2022-09-07T18:51:14.673Z,101140.31
2022-09-07T18:53:42.277Z,101143.28
2022-09-07T18:56:17.356Z,101144.91
2022-09-07T18:58:45.575Z,101148.69
2022-09-07T19:01:15.275Z,101150.78
2022-09-07T19:03:44.103Z,101144.13
2022-09-07T19:06:15.148Z,101139.41
2022-09-07T19:08:43.481Z,101142.31
2022-09-07T19:11:14.965Z,101134.19
2022-09-07T19:13:41.845Z,101131.25
2022-09-07T19:16:14.175Z,101129.50
2022-09-07T19:18:45.254Z,101132.91
2022-09-07T19:21:16.613Z,101128.91
2022-09-07T19:23:43.292Z,101142.63
2022-09-07T19:26:10.427Z,101139.13
2022-09-07T19:28:36.887Z,101136.63
2022-09-07T19:31:07.202Z,101140.56
2022-09-07T19:33:35.049Z,101138.59
2022-09-07T19:36:05.844Z,101135.84
2022-09-07T19:38:32.559Z,101146.91
2022-09-07T19:41:00.282Z,101142.19
2022-09-07T19:43:31.308Z,101145.13
2022-09-07T19:45:57.782Z,101150.16
2022-09-07T19:48:24.209Z,101146.22
2022-09-07T19:50:50.859Z,101151.50
2022-09-07T19:53:18.340Z,101136.19
2022-09-07T19:55:45.044Z,101139.72
2022-09-07T19:58:12.519Z,101133.72
2022-09-07T20:00:41.590Z,101132.06
2022-09-07T20:03:10.512Z,101127.75
2022-09-07T20:05:41.074Z,101127.03
2022-09-07T20:08:08.678Z,101121.31
2022-09-07T20:10:36.166Z,101118.03
2022-09-07T20:13:02.555Z,101123.81
2022-09-07T20:15:28.968Z,101122.47
2022-09-07T20:17:55.358Z,101114.22
2022-09-07T20:20:22.061Z,101122.72
2022-09-07T20:22:48.456Z,101122.59
2022-09-07T20:25:15.152Z,101118.16
2022-09-07T20:27:41.796Z,101114.25
2022-09-07T20:30:08.631Z,101109.94
2022-09-07T20:32:35.104Z,101100.72
2022-09-07T20:35:01.650Z,101101.84
2022-09-07T20:37:28.419Z,101095.72
2022-09-07T20:39:55.060Z,101098.63
2022-09-07T20:42:22.577Z,101095.59
2022-09-07T20:44:48.991Z,101092.50
2022-09-07T20:47:15.450Z,101090.84
2022-09-07T20:49:42.331Z,101098.63
2022-09-07T20:52:08.787Z,101097.66
2022-09-07T20:54:37.585Z,101096.00
2022-09-07T20:57:04.332Z,101091.53
2022-09-07T20:59:30.823Z,101092.66
2022-09-07T21:01:57.258Z,101093.34
2022-09-07T21:04:26.383Z,101090.41
2022-09-07T21:06:53.305Z,101093.91
2022-09-07T21:09:19.993Z,101090.16
2022-09-07T21:11:49.676Z,101091.69
2022-09-07T21:14:17.737Z,101096.16
2022-09-07T21:16:44.103Z,101092.78
2022-09-07T21:19:13.156Z,101087.66
2022-09-07T21:21:42.531Z,101086.22
2022-09-07T21:24:20.774Z,101086.66
2022-09-07T21:26:48.709Z,101087.94
2022-09-07T21:29:18.792Z,101087.94
2022-09-07T21:31:46.007Z,101080.09
2022-09-07T21:34:12.900Z,101078.72
2022-09-07T21:36:39.356Z,101083.44
2022-09-07T21:39:06.217Z,101072.31
2022-09-07T21:41:33.348Z,101071.75
2022-09-07T21:44:01.842Z,101078.97
2022-09-07T21:46:30.706Z,101076.06
2022-09-07T21:48:58.195Z,101068.66
2022-09-07T21:51:26.188Z,101066.59
2022-09-07T21:53:57.541Z,101054.75
2022-09-07T21:56:24.507Z,101052.66
2022-09-07T21:58:59.616Z,101058.34
2022-09-07T22:01:30.615Z,101063.25
2022-09-07T22:04:02.938Z,101055.03
2022-09-07T22:06:30.964Z,101068.41
2022-09-07T22:08:58.578Z,101057.25
2022-09-07T22:11:27.457Z,101060.31
2022-09-07T22:14:04.020Z,101056.41
2022-09-07T22:16:32.458Z,101056.41
2022-09-07T22:18:59.032Z,101053.31
2022-09-07T22:21:27.541Z,101059.00
2022-09-07T22:24:03.473Z,101050.78
2022-09-07T22:26:32.188Z,101050.50
2022-09-07T22:28:58.898Z,101048.56
2022-09-07T22:31:36.093Z,101051.47
2022-09-07T22:34:04.905Z,101045.34
2022-09-07T22:36:39.263Z,101052.56
2022-09-07T22:39:10.047Z,101048.25
2022-09-07T22:41:38.292Z,101050.78
2022-09-07T22:44:06.504Z,101046.31
2022-09-07T22:46:37.064Z,101052.44
2022-09-07T22:49:05.312Z,101052.31
2022-09-07T22:51:32.486Z,101052.75
2022-09-07T22:53:58.885Z,101054.13
2022-09-07T22:56:27.898Z,101038.69
2022-09-07T22:58:57.457Z,101040.91
2022-09-07T23:01:25.363Z,101032.13
2022-09-07T23:03:52.156Z,101022.53
2022-09-07T23:06:33.031Z,101006.66
2022-09-07T23:09:01.560Z,101017.63
2022-09-07T23:11:28.448Z,101011.50
2022-09-07T23:13:57.617Z,101011.94
2022-09-07T23:16:25.109Z,101010.69
2022-09-07T23:18:51.702Z,101008.72
2022-09-07T23:21:18.343Z,101009.59
2022-09-07T23:23:50.041Z,100999.53
2022-09-07T23:26:16.534Z,100995.34
2022-09-07T23:28:42.901Z,100987.84
2022-09-07T23:31:12.430Z,100996.16
2022-09-07T23:33:38.863Z,100992.56
2022-09-07T23:36:07.018Z,100986.72
2022-09-07T23:38:33.771Z,100977.50
2022-09-07T23:41:00.715Z,100979.16
2022-09-07T23:43:28.737Z,100969.41
2022-09-07T23:45:56.163Z,100971.94
2022-09-07T23:48:24.436Z,100965.09
2022-09-07T23:50:50.972Z,100964.84
2022-09-07T23:53:17.976Z,100970.53
2022-09-07T23:55:45.810Z,100966.22
2022-09-07T23:58:12.218Z,100956.34
